sensor_id;sensor_type;location;lat;lon;timestamp;pressure;altitude;pressure_sealevel;temperature
15544;BMP180;7873;52.230;12.856;2022-10-19T00:02:20;101891.63;;;24.54
15544;BMP180;7873;52.230;12.856;2022-10-19T00:04:47;101897.19;;;24.52
15544;BMP180;7873;52.230;12.856;2022-10-19T00:07:13;101900.88;;;24.51
15544;BMP180;7873;52.230;12.856;2022-10-19T00:09:42;101893.91;;;24.49
15544;BMP180;7873;52.230;12.856;2022-10-19T00:12:08;101892.91;;;24.50
15544;BMP180;7873;52.230;12.856;2022-10-19T00:14:36;101896.16;;;24.53
15544;BMP180;7873;52.230;12.856;2022-10-19T00:17:03;101890.09;;;24.51
15544;BMP180;7873;52.230;12.856;2022-10-19T00:19:31;101891.63;;;24.54
15544;BMP180;7873;52.230;12.856;2022-10-19T00:21:59;101889.78;;;24.54
15544;BMP180;7873;52.230;12.856;2022-10-19T00:24:25;101898.69;;;24.55
15544;BMP180;7873;52.230;12.856;2022-10-19T00:26:52;101899.53;;;24.55
15544;BMP180;7873;52.230;12.856;2022-10-19T00:29:19;101893.16;;;24.56
15544;BMP180;7873;52.230;12.856;2022-10-19T00:31:47;101903.75;;;24.58
15544;BMP180;7873;52.230;12.856;2022-10-19T00:34:14;101901.22;;;24.56
15544;BMP180;7873;52.230;12.856;2022-10-19T00:36:42;101894.66;;;24.59
15544;BMP180;7873;52.230;12.856;2022-10-19T00:39:11;101895.84;;;24.56
15544;BMP180;7873;52.230;12.856;2022-10-19T00:41:39;101897.53;;;24.57
15544;BMP180;7873;52.230;12.856;2022-10-19T00:47:12;101889.47;;;24.57
15544;BMP180;7873;52.230;12.856;2022-10-19T00:49:41;101890.28;;;24.58
15544;BMP180;7873;52.230;12.856;2022-10-19T00:52:13;101884.91;;;24.58
15544;BMP180;7873;52.230;12.856;2022-10-19T00:54:41;101887.44;;;24.59
15544;BMP180;7873;52.230;12.856;2022-10-19T00:57:09;101889.59;;;24.56
15544;BMP180;7873;52.230;12.856;2022-10-19T00:59:37;101887.91;;;24.55
15544;BMP180;7873;52.230;12.856;2022-10-19T01:02:05;101887.75;;;24.56
15544;BMP180;7873;52.230;12.856;2022-10-19T01:04:35;101886.75;;;24.57
15544;BMP180;7873;52.230;12.856;2022-10-19T01:07:04;101884.06;;;24.57
15544;BMP180;7873;52.230;12.856;2022-10-19T01:09:33;101892.97;;;24.58
15544;BMP180;7873;52.230;12.856;2022-10-19T01:12:06;101885.75;;;24.58
15544;BMP180;7873;52.230;12.856;2022-10-19T01:14:41;101882.06;;;24.59
15544;BMP180;7873;52.230;12.856;2022-10-19T01:17:16;101879.38;;;24.59
15544;BMP180;7873;52.230;12.856;2022-10-19T01:20:03;101878.50;;;24.59
15544;BMP180;7873;52.230;12.856;2022-10-19T01:22:43;101870.75;;;24.56
15544;BMP180;7873;52.230;12.856;2022-10-19T01:25:20;101866.91;;;24.58
15544;BMP180;7873;52.230;12.856;2022-10-19T01:27:55;101876.81;;;24.58
15544;BMP180;7873;52.230;12.856;2022-10-19T01:30:35;101877.00;;;24.56
15544;BMP180;7873;52.230;12.856;2022-10-19T01:33:15;101875.81;;;24.59
15544;BMP180;7873;52.230;12.856;2022-10-19T01:35:50;101873.28;;;24.57
15544;BMP180;7873;52.230;12.856;2022-10-19T01:38:27;101879.38;;;24.59
15544;BMP180;7873;52.230;12.856;2022-10-19T01:41:06;101885.44;;;24.61
15544;BMP180;7873;52.230;12.856;2022-10-19T01:43:39;101881.91;;;24.61
15544;BMP180;7873;52.230;12.856;2022-10-19T01:46:11;101880.03;;;24.61
15544;BMP180;7873;52.230;12.856;2022-10-19T01:48:40;101878.22;;;24.62
15544;BMP180;7873;52.230;12.856;2022-10-19T01:51:12;101874.50;;;24.63
15544;BMP180;7873;52.230;12.856;2022-10-19T01:53:43;101872.81;;;24.62
15544;BMP180;7873;52.230;12.856;2022-10-19T01:56:11;101863.56;;;24.64
15544;BMP180;7873;52.230;12.856;2022-10-19T01:58:39;101861.72;;;24.65
15544;BMP180;7873;52.230;12.856;2022-10-19T02:01:11;101858.19;;;24.64
15544;BMP180;7873;52.230;12.856;2022-10-19T02:03:39;101867.13;;;24.65
15544;BMP180;7873;52.230;12.856;2022-10-19T02:06:08;101854.66;;;24.64
15544;BMP180;7873;52.230;12.856;2022-10-19T02:08:39;101853.66;;;24.65
15544;BMP180;7873;52.230;12.856;2022-10-19T02:11:07;101849.59;;;24.61
15544;BMP180;7873;52.230;12.856;2022-10-19T02:13:35;101855.81;;;24.61
15544;BMP180;7873;52.230;12.856;2022-10-19T02:16:05;101847.91;;;24.60
15544;BMP180;7873;52.230;12.856;2022-10-19T02:18:36;101852.09;;;24.62
15544;BMP180;7873;52.230;12.856;2022-10-19T02:21:06;101858.19;;;24.64
15544;BMP180;7873;52.230;12.856;2022-10-19T02:23:34;101855.47;;;24.64
15544;BMP180;7873;52.230;12.856;2022-10-19T02:26:01;101846.38;;;24.65
15544;BMP180;7873;52.230;12.856;2022-10-19T02:28:29;101844.56;;;24.66
15544;BMP180;7873;52.230;12.856;2022-10-19T02:30:57;101848.94;;;24.67
15544;BMP180;7873;52.230;12.856;2022-10-19T02:33:24;101850.44;;;24.69
15544;BMP180;7873;52.230;12.856;2022-10-19T02:35:52;101857.03;;;24.67
15544;BMP180;7873;52.230;12.856;2022-10-19T02:38:21;101847.25;;;24.66
15544;BMP180;7873;52.230;12.856;2022-10-19T02:40:53;101837.63;;;24.63
15544;BMP180;7873;52.230;12.856;2022-10-19T02:43:23;101845.56;;;24.65
15544;BMP180;7873;52.230;12.856;2022-10-19T02:45:55;101853.78;;;24.63
15544;BMP180;7873;52.230;12.856;2022-10-19T02:48:28;101846.25;;;24.67
15544;BMP180;7873;52.230;12.856;2022-10-19T02:50:57;101845.38;;;24.66
15544;BMP180;7873;52.230;12.856;2022-10-19T02:53:23;101840.84;;;24.67
15544;BMP180;7873;52.230;12.856;2022-10-19T02:55:50;101851.44;;;24.68
15544;BMP180;7873;52.230;12.856;2022-10-19T02:58:17;101853.13;;;24.69
15544;BMP180;7873;52.230;12.856;2022-10-19T03:00:44;101858.84;;;24.66
15544;BMP180;7873;52.230;12.856;2022-10-19T03:03:10;101854.16;;;24.68
15544;BMP180;7873;52.230;12.856;2022-10-19T03:05:37;101851.63;;;24.67
15544;BMP180;7873;52.230;12.856;2022-10-19T03:08:05;101848.25;;;24.65
15544;BMP180;7873;52.230;12.856;2022-10-19T03:10:32;101858.03;;;24.66
15544;BMP180;7873;52.230;12.856;2022-10-19T03:12:59;101857.16;;;24.65
15544;BMP180;7873;52.230;12.856;2022-10-19T03:15:25;101860.41;;;24.69
15544;BMP180;7873;52.230;12.856;2022-10-19T03:17:53;101860.41;;;24.69
15544;BMP180;7873;52.230;12.856;2022-10-19T03:20:20;101856.50;;;24.71
15544;BMP180;7873;52.230;12.856;2022-10-19T03:22:47;101866.13;;;24.74
15544;BMP180;7873;52.230;12.856;2022-10-19T03:25:15;101864.81;;;24.78
15544;BMP180;7873;52.230;12.856;2022-10-19T03:27:42;101864.13;;;24.76
15544;BMP180;7873;52.230;12.856;2022-10-19T03:30:09;101870.38;;;24.76
15544;BMP180;7873;52.230;12.856;2022-10-19T03:32:36;101870.53;;;24.75
15544;BMP180;7873;52.230;12.856;2022-10-19T03:35:03;101878.47;;;24.76
15544;BMP180;7873;52.230;12.856;2022-10-19T03:37:30;101876.09;;;24.73
15544;BMP180;7873;52.230;12.856;2022-10-19T03:39:57;101869.31;;;24.69
15544;BMP180;7873;52.230;12.856;2022-10-19T03:42:25;101871.50;;;24.66
15544;BMP180;7873;52.230;12.856;2022-10-19T03:44:51;101882.41;;;24.64
15544;BMP180;7873;52.230;12.856;2022-10-19T03:47:18;101883.78;;;24.68
15544;BMP180;7873;52.230;12.856;2022-10-19T03:49:45;101883.78;;;24.68
15544;BMP180;7873;52.230;12.856;2022-10-19T03:52:11;101884.31;;;24.72
15544;BMP180;7873;52.230;12.856;2022-10-19T03:54:38;101884.47;;;24.70
15544;BMP180;7873;52.230;12.856;2022-10-19T03:57:05;101889.03;;;24.70
15544;BMP180;7873;52.230;12.856;2022-10-19T03:59:33;101888.56;;;24.74
15544;BMP180;7873;52.230;12.856;2022-10-19T04:01:59;101888.84;;;24.71
15544;BMP180;7873;52.230;12.856;2022-10-19T04:04:26;101892.25;;;24.73
15544;BMP180;7873;52.230;12.856;2022-10-19T04:06:53;101897.81;;;24.80
15544;BMP180;7873;52.230;12.856;2022-10-19T04:09:20;101895.44;;;24.77
15544;BMP180;7873;52.230;12.856;2022-10-19T04:11:48;101902.03;;;24.74
15544;BMP180;7873;52.230;12.856;2022-10-19T04:14:16;101902.59;;;24.60
15544;BMP180;7873;52.230;12.856;2022-10-19T04:16:44;101905.28;;;24.60
15544;BMP180;7873;52.230;12.856;2022-10-19T04:19:13;101906.63;;;24.56
15544;BMP180;7873;52.230;12.856;2022-10-19T04:21:40;101908.47;;;24.56
15544;BMP180;7873;52.230;12.856;2022-10-19T04:24:09;101915.03;;;24.53
15544;BMP180;7873;52.230;12.856;2022-10-19T04:26:38;101910.06;;;24.49
15544;BMP180;7873;52.230;12.856;2022-10-19T04:29:05;101909.78;;;24.52
15544;BMP180;7873;52.230;12.856;2022-10-19T04:31:32;101904.25;;;24.53
15544;BMP180;7873;52.230;12.856;2022-10-19T04:34:00;101912.31;;;24.53
15544;BMP180;7873;52.230;12.856;2022-10-19T04:36:27;101912.91;;;24.47
15544;BMP180;7873;52.230;12.856;2022-10-19T04:38:54;101927.88;;;24.42
15544;BMP180;7873;52.230;12.856;2022-10-19T04:41:21;101925.31;;;24.40
15544;BMP180;7873;52.230;12.856;2022-10-19T04:43:52;101927.19;;;24.40
15544;BMP180;7873;52.230;12.856;2022-10-19T04:46:19;101925.50;;;24.39
15544;BMP180;7873;52.230;12.856;2022-10-19T04:48:47;101923.81;;;24.38
15544;BMP180;7873;52.230;12.856;2022-10-19T04:51:16;101922.13;;;24.37
15544;BMP180;7873;52.230;12.856;2022-10-19T04:53:44;101935.72;;;24.35
15544;BMP180;7873;52.230;12.856;2022-10-19T04:56:12;101934.88;;;24.35
15544;BMP180;7873;52.230;12.856;2022-10-19T04:58:39;101923.09;;;24.36
15544;BMP180;7873;52.230;12.856;2022-10-19T05:01:07;101931.50;;;24.33
15544;BMP180;7873;52.230;12.856;2022-10-19T05:03:34;101934.34;;;24.31
15544;BMP180;7873;52.230;12.856;2022-10-19T05:06:02;101930.97;;;24.29
15544;BMP180;7873;52.230;12.856;2022-10-19T05:08:30;101933.66;;;24.29
15544;BMP180;7873;52.230;12.856;2022-10-19T05:10:59;101929.97;;;24.30
15544;BMP180;7873;52.230;12.856;2022-10-19T05:13:26;101929.28;;;24.28
15544;BMP180;7873;52.230;12.856;2022-10-19T05:15:56;101933.97;;;24.26
15544;BMP180;7873;52.230;12.856;2022-10-19T05:18:23;101926.06;;;24.25
15544;BMP180;7873;52.230;12.856;2022-10-19T05:20:49;101924.38;;;24.24
15544;BMP180;7873;52.230;12.856;2022-10-19T05:23:16;101936.69;;;24.26
15544;BMP180;7873;52.230;12.856;2022-10-19T05:25:44;101929.59;;;24.25
15544;BMP180;7873;52.230;12.856;2022-10-19T05:28:10;101936.13;;;24.23
15544;BMP180;7873;52.230;12.856;2022-10-19T05:30:37;101937.13;;;24.22
15544;BMP180;7873;52.230;12.856;2022-10-19T05:33:04;101931.75;;;24.22
15544;BMP180;7873;52.230;12.856;2022-10-19T05:35:31;101931.91;;;24.20
15544;BMP180;7873;52.230;12.856;2022-10-19T05:37:57;101937.28;;;24.20
15544;BMP180;7873;52.230;12.856;2022-10-19T05:40:24;101941.84;;;24.20
15544;BMP180;7873;52.230;12.856;2022-10-19T05:42:52;101928.50;;;24.18
15544;BMP180;7873;52.230;12.856;2022-10-19T05:45:19;101942.16;;;24.17
15544;BMP180;7873;52.230;12.856;2022-10-19T05:47:45;101934.75;;;24.19
15544;BMP180;7873;52.230;12.856;2022-10-19T05:50:12;101942.97;;;24.17
15544;BMP180;7873;52.230;12.856;2022-10-19T05:52:39;101941.47;;;24.15
15544;BMP180;7873;52.230;12.856;2022-10-19T05:55:06;101954.19;;;24.13
15544;BMP180;7873;52.230;12.856;2022-10-19T05:57:33;101944.44;;;24.12
15544;BMP180;7873;52.230;12.856;2022-10-19T06:00:02;101950.81;;;24.11
15544;BMP180;7873;52.230;12.856;2022-10-19T06:02:30;101944.75;;;24.09
15544;BMP180;7873;52.230;12.856;2022-10-19T06:04:57;101960.06;;;24.08
15544;BMP180;7873;52.230;12.856;2022-10-19T06:07:23;101956.69;;;24.06
15544;BMP180;7873;52.230;12.856;2022-10-19T06:09:50;101952.31;;;24.05
15544;BMP180;7873;52.230;12.856;2022-10-19T06:12:17;101952.81;;;24.09
15544;BMP180;7873;52.230;12.856;2022-10-19T06:14:43;101960.38;;;24.05
15544;BMP180;7873;52.230;12.856;2022-10-19T06:17:11;101962.22;;;24.05
15544;BMP180;7873;52.230;12.856;2022-10-19T06:19:38;101960.38;;;24.05
15544;BMP180;7873;52.230;12.856;2022-10-19T06:22:05;101956.00;;;24.04
15544;BMP180;7873;52.230;12.856;2022-10-19T06:24:31;101959.53;;;24.05
15544;BMP180;7873;52.230;12.856;2022-10-19T06:26:58;101955.00;;;24.05
15544;BMP180;7873;52.230;12.856;2022-10-19T06:29:25;101956.13;;;24.03
15544;BMP180;7873;52.230;12.856;2022-10-19T06:31:51;101957.28;;;24.00
15544;BMP180;7873;52.230;12.856;2022-10-19T06:34:21;101957.75;;;23.96
15544;BMP180;7873;52.230;12.856;2022-10-19T06:36:48;101965.16;;;23.94
15544;BMP180;7873;52.230;12.856;2022-10-19T06:39:15;101964.97;;;23.95
15544;BMP180;7873;52.230;12.856;2022-10-19T06:41:41;101970.22;;;23.97
15544;BMP180;7873;52.230;12.856;2022-10-19T06:44:08;101969.34;;;23.96
15544;BMP180;7873;52.230;12.856;2022-10-19T06:46:35;101969.34;;;23.96
15544;BMP180;7873;52.230;12.856;2022-10-19T06:49:01;101975.06;;;23.93
15544;BMP180;7873;52.230;12.856;2022-10-19T06:51:30;101978.75;;;23.92
15544;BMP180;7873;52.230;12.856;2022-10-19T06:53:58;101988.81;;;23.90
15544;BMP180;7873;52.230;12.856;2022-10-19T06:56:25;101987.00;;;23.91
15544;BMP180;7873;52.230;12.856;2022-10-19T06:58:53;101994.34;;;23.89
15544;BMP180;7873;52.230;12.856;2022-10-19T07:01:20;101989.13;;;23.87
15544;BMP180;7873;52.230;12.856;2022-10-19T07:03:48;101993.66;;;23.87
15544;BMP180;7873;52.230;12.856;2022-10-19T07:06:15;101985.75;;;23.85
15544;BMP180;7873;52.230;12.856;2022-10-19T07:08:43;101984.88;;;23.85
15544;BMP180;7873;52.230;12.856;2022-10-19T07:11:15;102000.19;;;23.84
15544;BMP180;7873;52.230;12.856;2022-10-19T07:13:42;101996.81;;;23.83
15544;BMP180;7873;52.230;12.856;2022-10-19T07:16:11;102001.03;;;23.85
15544;BMP180;7873;52.230;12.856;2022-10-19T07:18:39;102003.72;;;23.85
15544;BMP180;7873;52.230;12.856;2022-10-19T07:21:08;102005.00;;;23.81
15544;BMP180;7873;52.230;12.856;2022-10-19T07:23:37;102003.19;;;23.82
15544;BMP180;7873;52.230;12.856;2022-10-19T07:26:07;102012.66;;;23.85
15544;BMP180;7873;52.230;12.856;2022-10-19T07:28:37;102016.34;;;23.84
15544;BMP180;7873;52.230;12.856;2022-10-19T07:31:06;102010.25;;;23.83
15544;BMP180;7873;52.230;12.856;2022-10-19T07:33:32;102014.78;;;23.82
15544;BMP180;7873;52.230;12.856;2022-10-19T07:36:00;102011.38;;;23.80
15544;BMP180;7873;52.230;12.856;2022-10-19T07:38:27;102009.09;;;23.85
15544;BMP180;7873;52.230;12.856;2022-10-19T07:41:00;102002.03;;;23.84
15544;BMP180;7873;52.230;12.856;2022-10-19T07:43:28;102005.00;;;23.81
15544;BMP180;7873;52.230;12.856;2022-10-19T07:45:59;102007.84;;;23.79
15544;BMP180;7873;52.230;12.856;2022-10-19T07:48:26;102005.16;;;23.79
15544;BMP180;7873;52.230;12.856;2022-10-19T07:50:52;102015.38;;;23.76
15544;BMP180;7873;52.230;12.856;2022-10-19T07:53:19;102007.44;;;23.74
15544;BMP180;7873;52.230;12.856;2022-10-19T07:55:46;102010.97;;;23.75
15544;BMP180;7873;52.230;12.856;2022-10-19T07:58:12;102010.81;;;23.76
15544;BMP180;7873;52.230;12.856;2022-10-19T08:00:40;102016.38;;;23.75
15544;BMP180;7873;52.230;12.856;2022-10-19T08:03:07;102025.44;;;23.74
15544;BMP180;7873;52.230;12.856;2022-10-19T08:05:34;102023.56;;;23.74
15544;BMP180;7873;52.230;12.856;2022-10-19T08:08:01;102028.25;;;23.73
15544;BMP180;7873;52.230;12.856;2022-10-19T08:10:28;102023.75;;;23.73
15544;BMP180;7873;52.230;12.856;2022-10-19T08:12:54;102025.56;;;23.73
15544;BMP180;7873;52.230;12.856;2022-10-19T08:15:21;102025.56;;;23.73
15544;BMP180;7873;52.230;12.856;2022-10-19T08:17:49;102028.44;;;23.71
15544;BMP180;7873;52.230;12.856;2022-10-19T08:20:16;102026.56;;;23.72
15544;BMP180;7873;52.230;12.856;2022-10-19T08:22:42;102032.81;;;23.72
15544;BMP180;7873;52.230;12.856;2022-10-19T08:25:09;102033.81;;;23.71
15544;BMP180;7873;52.230;12.856;2022-10-19T08:27:36;102027.75;;;23.69
15544;BMP180;7873;52.230;12.856;2022-10-19T08:30:03;102034.25;;;23.67
15544;BMP180;7873;52.230;12.856;2022-10-19T08:32:30;102042.44;;;23.65
15544;BMP180;7873;52.230;12.856;2022-10-19T08:34:58;102035.38;;;23.64
15544;BMP180;7873;52.230;12.856;2022-10-19T08:37:24;102041.44;;;23.66
15544;BMP180;7873;52.230;12.856;2022-10-19T08:39:51;102039.63;;;23.67
15544;BMP180;7873;52.230;12.856;2022-10-19T08:42:19;102044.31;;;23.65
15544;BMP180;7873;52.230;12.856;2022-10-19T08:45:15;102044.16;;;23.66
15544;BMP180;7873;52.230;12.856;2022-10-19T08:47:58;102046.31;;;23.63
15544;BMP180;7873;52.230;12.856;2022-10-19T08:50:34;102043.63;;;23.63
15544;BMP180;7873;52.230;12.856;2022-10-19T08:53:04;102034.56;;;23.64
15544;BMP180;7873;52.230;12.856;2022-10-19T08:55:40;102036.69;;;23.60
15544;BMP180;7873;52.230;12.856;2022-10-19T08:58:22;102038.38;;;23.61
15544;BMP180;7873;52.230;12.856;2022-10-19T09:00:54;102035.84;;;23.60
15544;BMP180;7873;52.230;12.856;2022-10-19T09:03:26;102044.06;;;23.58
15544;BMP180;7873;52.230;12.856;2022-10-19T09:06:04;102045.06;;;23.57
15544;BMP180;7873;52.230;12.856;2022-10-19T09:08:37;102051.56;;;23.55
15544;BMP180;7873;52.230;12.856;2022-10-19T09:11:05;102049.88;;;23.54
15544;BMP180;7873;52.230;12.856;2022-10-19T09:13:39;102046.19;;;23.55
15544;BMP180;7873;52.230;12.856;2022-10-19T09:16:10;102051.72;;;23.53
15544;BMP180;7873;52.230;12.856;2022-10-19T09:18:38;102050.03;;;23.52
15544;BMP180;7873;52.230;12.856;2022-10-19T09:21:11;102054.25;;;23.55
15544;BMP180;7873;52.230;12.856;2022-10-19T09:23:43;102056.25;;;23.53
15544;BMP180;7873;52.230;12.856;2022-10-19T09:26:15;102057.94;;;23.54
15544;BMP180;7873;52.230;12.856;2022-10-19T09:28:47;102057.09;;;23.53
15544;BMP180;7873;52.230;12.856;2022-10-19T09:31:21;102052.88;;;23.51
15544;BMP180;7873;52.230;12.856;2022-10-19T09:33:52;102060.09;;;23.50
15544;BMP180;7873;52.230;12.856;2022-10-19T09:36:23;102064.63;;;23.50
15544;BMP180;7873;52.230;12.856;2022-10-19T09:38:50;102064.63;;;23.50
15544;BMP180;7873;52.230;12.856;2022-10-19T09:41:19;102069.84;;;23.51
15544;BMP180;7873;52.230;12.856;2022-10-19T09:43:50;102066.47;;;23.49
15544;BMP180;7873;52.230;12.856;2022-10-19T09:46:26;102060.22;;;23.49
15544;BMP180;7873;52.230;12.856;2022-10-19T09:48:58;102063.91;;;23.48
15544;BMP180;7873;52.230;12.856;2022-10-19T09:51:37;102065.78;;;23.47
15544;BMP180;7873;52.230;12.856;2022-10-19T09:54:04;102071.00;;;23.49
15544;BMP180;7873;52.230;12.856;2022-10-19T09:56:34;102071.00;;;23.49
15544;BMP180;7873;52.230;12.856;2022-10-19T09:59:20;102071.16;;;23.47
15544;BMP180;7873;52.230;12.856;2022-10-19T10:01:58;102066.78;;;23.46
15544;BMP180;7873;52.230;12.856;2022-10-19T10:04:26;102074.84;;;23.46
15544;BMP180;7873;52.230;12.856;2022-10-19T10:06:56;102072.53;;;23.51
15544;BMP180;7873;52.230;12.856;2022-10-19T10:09:25;102070.16;;;23.48
15544;BMP180;7873;52.230;12.856;2022-10-19T10:11:53;102068.59;;;23.46
15544;BMP180;7873;52.230;12.856;2022-10-19T10:14:24;102066.59;;;23.48
15544;BMP180;7873;52.230;12.856;2022-10-19T10:16:54;102069.47;;;23.46
15544;BMP180;7873;52.230;12.856;2022-10-19T10:19:25;102071.47;;;23.44
15544;BMP180;7873;52.230;12.856;2022-10-19T10:21:54;102074.16;;;23.44
15544;BMP180;7873;52.230;12.856;2022-10-19T10:24:25;102072.97;;;23.47
15544;BMP180;7873;52.230;12.856;2022-10-19T10:26:53;102076.66;;;23.46
15544;BMP180;7873;52.230;12.856;2022-10-19T10:29:22;102078.94;;;23.50
15544;BMP180;7873;52.230;12.856;2022-10-19T10:31:51;102080.91;;;23.48
15544;BMP180;7873;52.230;12.856;2022-10-19T10:34:29;102081.06;;;23.47
15544;BMP180;7873;52.230;12.856;2022-10-19T10:36:57;102083.75;;;23.47
15544;BMP180;7873;52.230;12.856;2022-10-19T10:39:26;102083.75;;;23.47
15544;BMP180;7873;52.230;12.856;2022-10-19T10:41:53;102079.34;;;23.46
15544;BMP180;7873;52.230;12.856;2022-10-19T10:44:23;102081.22;;;23.45
15544;BMP180;7873;52.230;12.856;2022-10-19T10:46:53;102078.66;;;23.44
15544;BMP180;7873;52.230;12.856;2022-10-19T10:49:23;102074.97;;;23.45
15544;BMP180;7873;52.230;12.856;2022-10-19T10:51:53;102076.28;;;23.41
15544;BMP180;7873;52.230;12.856;2022-10-19T10:54:22;102075.28;;;23.42
15544;BMP180;7873;52.230;12.856;2022-10-19T10:57:03;102075.41;;;23.40
15544;BMP180;7873;52.230;12.856;2022-10-19T10:59:34;102074.72;;;23.38
15544;BMP180;7873;52.230;12.856;2022-10-19T11:02:13;102074.56;;;23.40
15544;BMP180;7873;52.230;12.856;2022-10-19T11:04:48;102063.13;;;23.38
15544;BMP180;7873;52.230;12.856;2022-10-19T11:07:20;102058.75;;;23.37
15544;BMP180;7873;52.230;12.856;2022-10-19T11:09:51;102058.75;;;23.37
15544;BMP180;7873;52.230;12.856;2022-10-19T11:12:32;102064.13;;;23.37
15544;BMP180;7873;52.230;12.856;2022-10-19T11:15:03;102066.81;;;23.37
15544;BMP180;7873;52.230;12.856;2022-10-19T11:17:34;102073.00;;;23.37
15544;BMP180;7873;52.230;12.856;2022-10-19T11:20:04;102062.44;;;23.36
15544;BMP180;7873;52.230;12.856;2022-10-19T11:22:36;102055.34;;;23.35
15544;BMP180;7873;52.230;12.856;2022-10-19T11:25:23;102056.19;;;23.35
15544;BMP180;7873;52.230;12.856;2022-10-19T11:28:03;102061.44;;;23.37
15544;BMP180;7873;52.230;12.856;2022-10-19T11:30:38;102061.44;;;23.37
15544;BMP180;7873;52.230;12.856;2022-10-19T11:33:11;102052.66;;;23.35
15544;BMP180;7873;52.230;12.856;2022-10-19T11:35:47;102056.34;;;23.34
15544;BMP180;7873;52.230;12.856;2022-10-19T11:38:36;102047.28;;;23.35
15544;BMP180;7873;52.230;12.856;2022-10-19T11:41:12;102050.25;;;23.32
15544;BMP180;7873;52.230;12.856;2022-10-19T11:43:47;102040.22;;;23.34
15544;BMP180;7873;52.230;12.856;2022-10-19T11:46:22;102045.59;;;23.34
15544;BMP180;7873;52.230;12.856;2022-10-19T11:49:03;102046.31;;;23.36
15544;BMP180;7873;52.230;12.856;2022-10-19T11:51:38;102043.63;;;23.36
15544;BMP180;7873;52.230;12.856;2022-10-19T11:54:19;102044.75;;;23.33
15544;BMP180;7873;52.230;12.856;2022-10-19T11:56:56;102037.66;;;23.32
15544;BMP180;7873;52.230;12.856;2022-10-19T11:59:33;102043.91;;;23.33
15544;BMP180;7873;52.230;12.856;2022-10-19T12:02:22;102040.50;;;23.31
15544;BMP180;7873;52.230;12.856;2022-10-19T12:04:55;102036.28;;;23.28
15544;BMP180;7873;52.230;12.856;2022-10-19T12:07:42;102030.72;;;23.30
15544;BMP180;7873;52.230;12.856;2022-10-19T12:10:17;102030.72;;;23.30
15544;BMP180;7873;52.230;12.856;2022-10-19T12:12:48;102021.84;;;23.29
15544;BMP180;7873;52.230;12.856;2022-10-19T12:15:26;102016.59;;;23.28
15544;BMP180;7873;52.230;12.856;2022-10-19T12:17:57;102019.28;;;23.28
15544;BMP180;7873;52.230;12.856;2022-10-19T12:20:28;102021.16;;;23.27
15544;BMP180;7873;52.230;12.856;2022-10-19T12:22:57;102015.59;;;23.29
15544;BMP180;7873;52.230;12.856;2022-10-19T12:25:25;102013.78;;;23.29
15544;BMP180;7873;52.230;12.856;2022-10-19T12:27:52;102018.16;;;23.30
15544;BMP180;7873;52.230;12.856;2022-10-19T12:30:20;102023.66;;;23.29
15544;BMP180;7873;52.230;12.856;2022-10-19T12:32:57;102016.47;;;23.29
15544;BMP180;7873;52.230;12.856;2022-10-19T12:35:51;102016.47;;;23.29
15544;BMP180;7873;52.230;12.856;2022-10-19T12:38:24;102014.78;;;23.28
15544;BMP180;7873;52.230;12.856;2022-10-19T12:40:59;102012.91;;;23.29
15544;BMP180;7873;52.230;12.856;2022-10-19T12:43:33;102014.91;;;23.27
15544;BMP180;7873;52.230;12.856;2022-10-19T12:46:09;102012.22;;;23.27
15544;BMP180;7873;52.230;12.856;2022-10-19T12:48:37;102003.31;;;23.26
15544;BMP180;7873;52.230;12.856;2022-10-19T12:51:10;102006.72;;;23.28
15544;BMP180;7873;52.230;12.856;2022-10-19T12:53:39;102012.91;;;23.29
15544;BMP180;7873;52.230;12.856;2022-10-19T12:56:10;102006.00;;;23.26
15544;BMP180;7873;52.230;12.856;2022-10-19T12:58:44;102007.13;;;23.24
15544;BMP180;7873;52.230;12.856;2022-10-19T13:01:15;102004.31;;;23.25
15544;BMP180;7873;52.230;12.856;2022-10-19T13:03:45;102005.16;;;23.26
15544;BMP180;7873;52.230;12.856;2022-10-19T13:06:15;101999.78;;;23.26
15544;BMP180;7873;52.230;12.856;2022-10-19T13:08:47;101991.56;;;23.27
15544;BMP180;7873;52.230;12.856;2022-10-19T13:11:20;101992.41;;;23.28
15544;BMP180;7873;52.230;12.856;2022-10-19T13:13:54;101995.94;;;23.28
15544;BMP180;7873;52.230;12.856;2022-10-19T13:16:54;101989.59;;;23.29
15544;BMP180;7873;52.230;12.856;2022-10-19T13:19:23;101982.66;;;23.27
15544;BMP180;7873;52.230;12.856;2022-10-19T13:24:43;101982.81;;;23.25
15544;BMP180;7873;52.230;12.856;2022-10-19T13:27:36;101980.97;;;23.26
15544;BMP180;7873;52.230;12.856;2022-10-19T13:30:04;101981.94;;;23.25
15544;BMP180;7873;52.230;12.856;2022-10-19T13:32:51;101980.13;;;23.25
15544;BMP180;7873;52.230;12.856;2022-10-19T13:35:37;101982.81;;;23.25
15544;BMP180;7873;52.230;12.856;2022-10-19T13:38:19;101977.56;;;23.24
15544;BMP180;7873;52.230;12.856;2022-10-19T13:40:59;101968.94;;;23.20
15544;BMP180;7873;52.230;12.856;2022-10-19T13:43:29;101969.69;;;23.22
15544;BMP180;7873;52.230;12.856;2022-10-19T13:46:03;101966.25;;;23.20
15544;BMP180;7873;52.230;12.856;2022-10-19T13:48:37;101968.13;;;23.20
15544;BMP180;7873;52.230;12.856;2022-10-19T13:51:16;101977.88;;;23.21
15544;BMP180;7873;52.230;12.856;2022-10-19T13:53:47;101973.50;;;23.20
15544;BMP180;7873;52.230;12.856;2022-10-19T13:56:34;101978.00;;;23.19
15544;BMP180;7873;52.230;12.856;2022-10-19T13:59:27;101976.19;;;23.20
15544;BMP180;7873;52.230;12.856;2022-10-19T14:02:21;101971.63;;;23.20
15544;BMP180;7873;52.230;12.856;2022-10-19T14:05:06;101961.88;;;23.19
15544;BMP180;7873;52.230;12.856;2022-10-19T14:07:43;101966.44;;;23.19
15544;BMP180;7873;52.230;12.856;2022-10-19T14:10:14;101962.88;;;23.18
15544;BMP180;7873;52.230;12.856;2022-10-19T14:12:44;101962.19;;;23.16
15544;BMP180;7873;52.230;12.856;2022-10-19T14:15:19;101963.56;;;23.20
15544;BMP180;7873;52.230;12.856;2022-10-19T14:17:46;101965.03;;;23.15
15544;BMP180;7873;52.230;12.856;2022-10-19T14:20:24;101963.56;;;23.20
15544;BMP180;7873;52.230;12.856;2022-10-19T14:22:52;101955.25;;;23.23